メインページ
METAR-TAF:

METAR-TAF

空港 :

コスラエ国際空港

コスラエ州, ミクロネシア

緯度: 05-21N, 経度: 162-57E, 海抜: 3m

現時点の気象観測

当レポートは40分前の14:16(UTC)に作成
東/北東の風 5kt
気温 27°C
湿度 89%
気圧 1008 hPa
視程: 16.1km
高度1700ftの雲は散在している
高度13000ftの千切れ雲あり
高度30000ftの曇り

METAR: PTSA 251416Z 07005KT 10SM SCT017 BKN130 OVC300 27/25 A2977 RMK FIRST

時間: 01:56 (14:56 UTC)

予報

当レポートは15時間34分前の23:22(UTC)に作成
予報は25日の 00時(UTC)から 25日の 24時(UTC)まで有効
東/南東の風 8kt
視程: 10km
高度1800ftの雲は散在している
高度13000ftの千切れ雲あり
近辺でにわか雨
25日の 02時(UTC)から 25日の 06時(UTC)まで一時的に
視程: 6.4km
高度1800ftの雲は散在している
高度3000ftの曇り
にわか雨

TAF: PTSA 242322Z 2500/2524 12008KT P6SM VCSH SCT018 BKN130 TEMPO 2502/2506 4SM SHRA SCT018 OVC030

4,000以上の空港の気象観測と天気予報(METAR報とTAF報)

利用可能な観測所は地図上に黄色い丸と赤い丸で示す。

丸の上にカーソルを重ねると観測所名を参照できる。

次にクリックすると気象観測と天気予報を参照できる。

マップの切り替え:黒色「×」印の緑ボタンをクリックして拡大、「-」印の緑ボタンをクリックして縮小、緑色の三角印をクリックして隣りの地図に切り替え


METAR-TAF: